Time;durP1;ratioP1;P1;durP2;ratioP2;P2;SDS_P1;SDS_P2;PMS_P1;PMS_P2;Temp;Humidity;BMP_temperature;BMP_pressure;BME280_temperature;BME280_humidity;BME280_pressure;Samples;Min_cycle;Max_cycle;Signal;HPM_P1;HPM_P2
2024/02/06 00:02:16;;;;;;;15.28;10.53;;;;;;;4.30;100.00;99037.00;1664601;86;25522;-44
2024/02/06 00:04:43;;;;;;;13.85;9.55;;;;;;;4.32;100.00;99030.80;1664512;86;26261;-44
2024/02/06 00:07:11;;;;;;;15.30;10.53;;;;;;;4.34;100.00;99015.77;1664612;86;25449;-44
2024/02/06 00:09:38;;;;;;;17.10;10.63;;;;;;;4.35;100.00;99013.36;1664821;86;27703;-45
2024/02/06 00:12:11;;;;;;;15.10;10.58;;;;;;;4.36;100.00;99010.91;1666447;85;25445;-43
2024/02/06 00:14:38;;;;;;;15.43;10.65;;;;;;;4.36;100.00;99015.73;1664611;86;25631;-43
2024/02/06 00:17:04;;;;;;;15.58;10.45;;;;;;;4.36;100.00;99010.91;1666432;85;26601;-45
2024/02/06 00:19:32;;;;;;;17.67;11.20;;;;;;;4.37;100.00;99007.15;1664523;86;25593;-44
2024/02/06 00:21:59;;;;;;;18.40;12.07;;;;;;;4.38;100.00;99006.07;1664534;86;27762;-47
2024/02/06 00:24:27;;;;;;;18.37;11.65;;;;;;;4.40;100.00;98991.28;1664486;86;26239;-45
2024/02/06 00:26:53;;;;;;;19.73;12.70;;;;;;;4.40;100.00;98989.16;1664593;86;25179;-44
2024/02/06 00:29:21;;;;;;;20.43;12.43;;;;;;;4.42;100.00;98991.77;1664574;86;25617;-44
2024/02/06 00:31:49;;;;;;;18.80;11.95;;;;;;;4.44;100.00;99000.31;1664658;86;25449;-48
2024/02/06 00:34:18;;;;;;;20.82;12.33;;;;;;;4.47;100.00;99001.03;1659776;86;27348;-48
2024/02/06 00:36:48;;;;;;;20.17;12.10;;;;;;;4.52;100.00;99006.84;1664568;86;27155;-47
2024/02/06 00:39:16;;;;;;;;;;;;;;;4.56;100.00;99001.67;1668047;85;25673;-45
2024/02/06 00:41:43;;;;;;;20.65;10.93;;;;;;;4.61;100.00;98997.55;1664680;86;25669;-43
2024/02/06 00:44:12;;;;;;;21.77;11.15;;;;;;;4.67;100.00;98990.99;1664754;86;25538;-46
2024/02/06 00:46:39;;;;;;;20.10;9.68;;;;;;;4.74;100.00;98987.91;1664659;86;28094;-43
2024/02/06 00:49:07;;;;;;;18.40;9.08;;;;;;;4.82;100.00;98984.52;1664527;86;25649;-44
2024/02/06 00:51:36;;;;;;;20.15;9.78;;;;;;;4.94;100.00;98985.30;1664579;86;25645;-44
2024/02/06 00:54:05;;;;;;;21.33;9.10;;;;;;;5.03;100.00;98980.25;1664519;86;26252;-44
2024/02/06 00:56:34;;;;;;;22.02;10.28;;;;;;;5.16;100.00;98979.16;1664783;86;25494;-43
2024/02/06 00:59:02;;;;;;;24.03;10.03;;;;;;;5.26;100.00;98980.80;1664747;86;27513;-46
2024/02/06 01:01:31;;;;;;;26.20;11.25;;;;;;;5.34;100.00;98988.13;1666536;85;25713;-46
2024/02/06 01:03:59;;;;;;;29.23;10.58;;;;;;;5.43;100.00;98987.09;1664541;86;25450;-45
2024/02/06 01:06:27;;;;;;;26.42;10.60;;;;;;;5.52;100.00;98975.62;1659913;86;26249;-45
2024/02/06 01:08:56;;;;;;;30.27;10.88;;;;;;;5.59;100.00;98986.14;1664536;86;25443;-42
2024/02/06 01:11:24;;;;;;;20.08;10.50;;;;;;;5.66;100.00;98968.27;1664513;86;28038;-45
2024/02/06 01:13:52;;;;;;;28.00;10.93;;;;;;;5.71;100.00;98980.20;1664417;86;25597;-45
2024/02/06 01:16:20;;;;;;;24.35;10.70;;;;;;;5.77;100.00;98978.98;1664742;86;25472;-45
2024/02/06 01:18:47;;;;;;;24.35;10.95;;;;;;;5.84;100.00;98987.13;1664434;86;26561;-46
2024/02/06 01:21:15;;;;;;;24.47;12.00;;;;;;;5.87;100.00;98977.12;1664582;86;25669;-44
2024/02/06 01:23:42;;;;;;;26.73;11.18;;;;;;;5.92;100.00;98985.03;1666622;85;28173;-46
2024/02/06 01:26:14;;;;;;;24.98;12.45;;;;;;;5.94;100.00;98979.61;1664417;86;25568;-45
2024/02/06 01:28:42;;;;;;;23.42;11.12;;;;;;;5.98;100.00;98977.13;1665510;85;25679;-49
2024/02/06 01:31:14;;;;;;;30.75;12.28;;;;;;;6.01;100.00;98979.20;1664480;86;26337;-45
2024/02/06 01:33:40;;;;;;;28.47;13.80;;;;;;;6.05;100.00;98972.66;1665405;85;25481;-44
2024/02/06 01:36:09;;;;;;;31.52;12.40;;;;;;;6.07;100.00;98976.59;1664529;86;27883;-46
2024/02/06 01:38:37;;;;;;;28.70;12.23;;;;;;;6.09;100.00;98971.70;1670193;85;25636;-45
2024/02/06 01:41:05;;;;;;;24.12;13.15;;;;;;;6.11;100.00;98974.08;1668119;85;25589;-45
2024/02/06 01:43:32;;;;;;;26.48;12.15;;;;;;;6.12;100.00;98984.50;1664498;86;25532;-45
2024/02/06 01:46:00;;;;;;;27.05;11.68;;;;;;;6.14;100.00;98971.55;1664522;86;25522;-43
2024/02/06 01:48:30;;;;;;;23.83;12.20;;;;;;;6.17;100.00;98974.19;1664753;86;28017;-44
2024/02/06 01:50:58;;;;;;;27.27;12.00;;;;;;;6.19;100.00;98964.48;1664567;86;25626;-48
2024/02/06 01:53:27;;;;;;;22.22;11.28;;;;;;;6.21;100.00;98968.42;1663199;86;25627;-46
2024/02/06 01:55:56;;;;;;;33.63;11.30;;;;;;;6.20;100.00;98974.09;1664580;86;26648;-46
2024/02/06 01:58:25;;;;;;;25.95;11.97;;;;;;;6.23;100.00;98966.77;1664649;86;25482;-44
2024/02/06 02:00:53;;;;;;;29.00;11.25;;;;;;;6.24;100.00;98968.36;1664593;86;27339;-46
2024/02/06 02:03:23;;;;;;;24.18;10.50;;;;;;;6.25;100.00;98966.70;1664396;86;26003;-44
2024/02/06 02:05:52;;;;;;;22.67;10.08;;;;;;;6.25;100.00;98976.11;1666443;85;25734;-45
2024/02/06 02:08:20;;;;;;;31.10;9.93;;;;;;;6.27;100.00;98961.81;1664673;84;26532;-46
2024/02/06 02:10:47;;;;;;;19.73;9.33;;;;;;;6.27;100.00;98969.87;1665466;85;25698;-46
2024/02/06 02:13:16;;;;;;;25.57;10.08;;;;;;;6.27;100.00;98959.69;1664510;86;28003;-46
2024/02/06 02:15:44;;;;;;;25.68;8.60;;;;;;;6.28;100.00;98947.30;1668644;85;30317;-48
2024/02/06 02:18:11;;;;;;;18.07;8.45;;;;;;;6.28;100.00;98966.63;1664465;86;25608;-47
2024/02/06 02:20:37;;;;;;;24.30;9.13;;;;;;;6.28;100.00;98969.30;1664452;86;26643;-48
2024/02/06 02:23:06;;;;;;;17.77;8.70;;;;;;;6.28;100.00;98960.72;1664620;86;25595;-46
2024/02/06 02:25:35;;;;;;;24.43;8.85;;;;;;;6.29;100.00;98961.50;1664710;86;27347;-44
2024/02/06 02:28:06;;;;;;;18.98;8.28;;;;;;;6.29;100.00;98956.13;1664556;86;25503;-45
2024/02/06 02:30:35;;;;;;;17.23;7.92;;;;;;;6.28;100.00;98974.68;1664538;86;25439;-46
2024/02/06 02:33:08;;;;;;;17.55;8.35;;;;;;;6.28;100.00;98935.73;1664433;86;27548;-45
2024/02/06 02:35:37;;;;;;;19.45;8.63;;;;;;;6.29;100.00;98949.42;1664568;86;25433;-45
2024/02/06 02:38:06;;;;;;;18.62;7.53;;;;;;;6.27;100.00;98947.60;1664602;86;27350;-45
2024/02/06 02:40:35;;;;;;;14.28;7.92;;;;;;;6.25;100.00;98949.25;1664522;86;25569;-45
2024/02/06 02:43:04;;;;;;;13.50;7.10;;;;;;;6.26;100.00;98954.06;1664630;86;25608;-44
2024/02/06 02:45:33;;;;;;;17.95;6.40;;;;;;;6.27;100.00;98958.34;1664645;86;32367;-46
2024/02/06 02:48:02;;;;;;;13.35;6.85;;;;;;;6.25;100.00;98956.50;1664811;86;26834;-46
2024/02/06 02:50:31;;;;;;;16.37;6.58;;;;;;;6.23;100.00;98952.81;1664794;86;27404;-46
2024/02/06 02:52:57;;;;;;;15.50;6.40;;;;;;;6.23;100.00;98947.44;1664784;86;25671;-44
2024/02/06 02:55:26;;;;;;;13.08;5.78;;;;;;;6.24;100.00;98961.09;1664608;86;25597;-44
2024/02/06 02:57:52;;;;;;;12.30;5.50;;;;;;;6.24;100.00;98963.77;1664716;86;25631;-46
2024/02/06 03:00:22;;;;;;;15.32;5.15;;;;;;;6.24;100.00;98962.43;1664709;86;25562;-46
2024/02/06 03:02:51;;;;;;;18.25;6.25;;;;;;;6.24;100.00;98957.63;1667602;85;28059;-45
2024/02/06 03:05:20;;;;;;;12.03;4.37;;;;;;;6.26;100.00;98960.78;1664666;86;25788;-44
2024/02/06 03:07:47;;;;;;;12.43;5.50;;;;;;;6.27;100.00;98973.11;1665689;85;25450;-45
2024/02/06 03:10:13;;;;;;;10.50;4.45;;;;;;;6.27;100.00;98967.74;1664573;86;26206;-45
2024/02/06 03:12:43;;;;;;;11.38;4.72;;;;;;;6.28;100.00;98950.51;1664710;86;25635;-45
2024/02/06 03:15:11;;;;;;;;;;;;;;;6.28;100.00;98960.72;1667087;86;28056;-45
2024/02/06 03:17:40;;;;;;;10.07;4.00;;;;;;;6.29;100.00;98977.61;1664807;85;25664;-46
2024/02/06 03:20:11;;;;;;;7.85;3.50;;;;;;;6.30;100.00;98963.06;1664711;86;25451;-44
2024/02/06 03:22:39;;;;;;;6.87;3.27;;;;;;;6.29;100.00;98956.91;1664591;86;25675;-44
2024/02/06 03:25:08;;;;;;;8.83;3.35;;;;;;;6.31;100.00;98970.03;1664765;86;25424;-45
2024/02/06 03:27:41;;;;;;;12.53;3.40;;;;;;;6.32;100.00;98972.97;1664715;86;27694;-44
2024/02/06 03:30:10;;;;;;;8.70;3.00;;;;;;;6.33;100.00;98963.79;1664282;86;25647;-44
2024/02/06 03:32:40;;;;;;;11.60;3.37;;;;;;;6.35;100.00;98958.36;1664643;86;25494;-45
2024/02/06 03:35:10;;;;;;;5.90;2.67;;;;;;;6.35;100.00;98968.29;1664725;86;33835;-45
2024/02/06 03:37:39;;;;;;;6.33;3.12;;;;;;;6.38;100.00;98952.12;1664627;86;25655;-46
2024/02/06 03:40:10;;;;;;;7.10;2.42;;;;;;;6.38;100.00;98960.17;1664544;86;28116;-44
2024/02/06 03:42:39;;;;;;;5.53;2.50;;;;;;;6.41;100.00;98959.55;1664527;85;25506;-44
2024/02/06 03:45:09;;;;;;;10.78;2.60;;;;;;;6.43;100.00;98950.06;1664697;86;25672;-43
2024/02/06 03:47:38;;;;;;;5.60;2.65;;;;;;;6.45;100.00;98960.50;1664558;86;25696;-44
2024/02/06 03:50:08;;;;;;;6.05;2.35;;;;;;;6.48;100.00;98965.25;1664743;85;25581;-42
2024/02/06 03:52:37;;;;;;;3.65;2.30;;;;;;;6.49;100.00;98959.56;1664540;86;27400;-45
2024/02/06 03:55:07;;;;;;;4.97;2.55;;;;;;;6.50;100.00;98965.72;1664569;86;26227;-45
2024/02/06 03:57:35;;;;;;;;;;;;;;;6.53;100.00;98965.09;1667041;86;25688;-43
2024/02/06 04:00:08;;;;;;;3.87;2.30;;;;;;;6.54;100.00;98964.78;1664657;86;26822;-45
2024/02/06 04:02:36;;;;;;;5.05;2.87;;;;;;;6.55;100.00;98964.22;1664603;86;25668;-44
2024/02/06 04:05:07;;;;;;;7.80;2.92;;;;;;;6.52;100.00;98964.31;1664478;86;28376;-43
2024/02/06 04:07:33;;;;;;;5.78;2.95;;;;;;;6.53;100.00;98957.81;1664506;86;25451;-43
2024/02/06 04:10:00;;;;;;;6.65;3.02;;;;;;;6.52;100.00;98952.75;1664564;86;25427;-43
2024/02/06 04:12:27;;;;;;;4.33;2.70;;;;;;;6.50;100.00;98962.50;1664466;86;26591;-43
2024/02/06 04:14:55;;;;;;;7.28;2.65;;;;;;;6.51;100.00;98959.25;1664637;86;25487;-43
2024/02/06 04:17:21;;;;;;;4.22;2.75;;;;;;;6.50;100.00;98952.28;1664526;86;26828;-43
2024/02/06 04:19:48;;;;;;;5.47;2.80;;;;;;;6.51;100.00;98949.84;1659477;86;25506;-43
2024/02/06 04:22:15;;;;;;;6.78;3.10;;;;;;;6.51;100.00;98947.16;1664493;86;25667;-44
2024/02/06 04:24:43;;;;;;;7.37;3.22;;;;;;;6.53;100.00;98977.97;1664598;86;25897;-45
2024/02/06 04:27:12;;;;;;;4.00;2.60;;;;;;;6.56;100.00;98953.73;1664553;86;25588;-45
2024/02/06 04:29:39;;;;;;;7.40;3.00;;;;;;;6.60;100.00;98937.77;1664517;86;27261;-45
2024/02/06 04:32:09;;;;;;;7.62;3.12;;;;;;;6.62;100.00;98951.11;1664403;86;25685;-43
2024/02/06 04:34:36;;;;;;;7.28;3.05;;;;;;;6.64;100.00;98944.08;1664535;86;25632;-44
2024/02/06 04:37:04;;;;;;;13.00;3.45;;;;;;;6.66;100.00;98948.05;1664415;86;25606;-44
2024/02/06 04:39:32;;;;;;;6.33;3.40;;;;;;;6.66;100.00;98929.23;1664642;86;25565;-44
2024/02/06 04:41:58;;;;;;;6.90;3.72;;;;;;;6.67;100.00;98932.70;1664492;86;27750;-44
2024/02/06 04:44:28;;;;;;;6.75;3.80;;;;;;;6.68;100.00;98937.77;1664449;86;25533;-44
2024/02/06 04:46:56;;;;;;;7.67;3.98;;;;;;;6.69;100.00;98919.73;1664554;85;25699;-45
2024/02/06 04:49:24;;;;;;;7.12;4.33;;;;;;;6.69;100.00;98948.77;1664562;86;34693;-44
2024/02/06 04:51:55;;;;;;;10.80;4.37;;;;;;;6.72;100.00;98933.36;1664540;86;25517;-42
2024/02/06 04:54:25;;;;;;;;;;;;;;;6.73;100.00;98932.80;1666948;86;28379;-45
2024/02/06 04:56:52;;;;;;;8.20;4.87;;;;;;;6.75;100.00;98929.80;1664474;86;25571;-44
2024/02/06 04:59:21;;;;;;;9.63;4.80;;;;;;;6.78;100.00;98956.05;1664467;86;25657;-45
2024/02/06 05:01:51;;;;;;;;;;;;;;;6.78;100.00;98931.30;1666890;86;26022;-44
2024/02/06 05:04:18;;;;;;;10.00;4.80;;;;;;;6.80;100.00;98928.29;1664573;85;25690;-44
2024/02/06 05:06:45;;;;;;;7.55;4.80;;;;;;;6.81;100.00;98925.30;1664497;86;27040;-45
2024/02/06 05:09:13;;;;;;;8.85;4.80;;;;;;;6.83;100.00;98925.76;1659878;86;25703;-44
2024/02/06 05:11:43;;;;;;;12.30;5.03;;;;;;;6.86;100.00;98935.06;1664488;86;25523;-44
2024/02/06 05:14:09;;;;;;;11.88;5.53;;;;;;;6.87;100.00;98936.66;1666362;85;25983;-43
2024/02/06 05:16:36;;;;;;;12.78;5.22;;;;;;;6.87;100.00;98932.07;1664551;86;25611;-43
2024/02/06 05:19:03;;;;;;;11.50;5.22;;;;;;;6.89;100.00;98930.41;1664457;86;27200;-44
2024/02/06 05:21:31;;;;;;;12.33;5.90;;;;;;;6.89;100.00;98923.12;1664416;86;25832;-44
2024/02/06 05:23:57;;;;;;;10.30;5.45;;;;;;;6.91;100.00;98925.50;1664482;86;25706;-43
2024/02/06 05:26:24;;;;;;;11.10;6.08;;;;;;;6.92;100.00;98937.84;1662954;86;26023;-43
2024/02/06 05:28:50;;;;;;;13.78;5.80;;;;;;;6.92;100.00;98921.72;1664501;86;25448;-44
2024/02/06 05:31:21;;;;;;;11.20;6.40;;;;;;;6.94;100.00;98928.13;1664427;86;27281;-43
2024/02/06 05:33:48;;;;;;;13.00;6.08;;;;;;;6.91;100.00;98923.63;1664472;85;25667;-44
2024/02/06 05:36:17;;;;;;;12.53;6.50;;;;;;;6.91;100.00;98914.22;1664437;86;25484;-43
2024/02/06 05:38:43;;;;;;;10.15;5.80;;;;;;;6.91;100.00;98922.28;1664529;86;25670;-42
2024/02/06 05:41:15;;;;;;;14.25;7.22;;;;;;;6.90;100.00;98921.25;1664498;86;25424;-43
2024/02/06 05:43:42;;;;;;;13.98;6.80;;;;;;;6.90;100.00;98919.91;1664513;86;28010;-45
2024/02/06 05:46:13;;;;;;;13.83;7.30;;;;;;;6.89;100.00;98919.09;1664401;86;25664;-45
2024/02/06 05:48:42;;;;;;;;;;;;;;;6.89;100.00;98927.16;1666963;86;25436;-45
2024/02/06 05:51:09;;;;;;;10.85;6.97;;;;;;;6.88;100.00;98929.62;1664600;86;25425;-45
2024/02/06 05:53:40;;;;;;;15.07;7.57;;;;;;;6.86;100.00;98923.78;1664743;86;25560;-44
2024/02/06 05:56:10;;;;;;;;;;;;;;;6.84;100.00;98927.32;1666935;86;27699;-44
2024/02/06 05:58:42;;;;;;;18.67;8.68;;;;;;;6.86;100.00;98937.23;1664416;85;26494;-45
2024/02/06 06:01:14;;;;;;;14.05;7.62;;;;;;;6.85;100.00;98908.75;1664530;86;25438;-46
2024/02/06 06:03:43;;;;;;;12.47;7.83;;;;;;;6.85;100.00;98920.06;1664456;86;26103;-44
2024/02/06 06:06:10;;;;;;;13.83;8.35;;;;;;;6.84;100.00;98915.79;1664538;86;25677;-43
2024/02/06 06:08:37;;;;;;;15.23;8.33;;;;;;;6.81;100.00;98911.85;1664332;86;27685;-43
2024/02/06 06:11:05;;;;;;;15.90;8.50;;;;;;;6.81;100.00;98911.04;1663018;86;25723;-46
2024/02/06 06:13:33;;;;;;;13.93;8.55;;;;;;;6.81;100.00;98921.26;1666043;85;25746;-43
2024/02/06 06:16:00;;;;;;;15.83;9.43;;;;;;;6.81;100.00;98919.10;1663857;86;25708;-44
2024/02/06 06:18:26;;;;;;;16.17;9.18;;;;;;;6.80;100.00;98914.29;1663753;86;25671;-44
2024/02/06 06:20:53;;;;;;;13.72;9.38;;;;;;;6.80;100.00;98914.86;1663949;86;27689;-44
2024/02/06 06:23:20;;;;;;;15.53;9.65;;;;;;;6.80;100.00;98912.16;1663980;86;25746;-44
2024/02/06 06:25:47;;;;;;;18.52;10.48;;;;;;;6.80;100.00;98917.55;1664401;86;25638;-44
2024/02/06 06:28:14;;;;;;;15.93;10.20;;;;;;;6.80;100.00;98921.58;1664592;86;26571;-44
2024/02/06 06:30:40;;;;;;;16.42;9.78;;;;;;;6.79;100.00;98918.64;1664649;86;25617;-46
2024/02/06 06:33:07;;;;;;;19.50;10.32;;;;;;;6.78;100.00;98930.52;1664624;86;27746;-45
2024/02/06 06:35:33;;;;;;;20.17;10.05;;;;;;;6.79;100.00;98933.42;1664551;86;25436;-43
2024/02/06 06:38:01;;;;;;;20.62;10.93;;;;;;;6.79;100.00;98928.83;1665686;85;25572;-44
2024/02/06 06:40:28;;;;;;;18.05;10.72;;;;;;;6.79;100.00;98942.27;1664528;86;26689;-43
2024/02/06 06:42:57;;;;;;;15.38;10.38;;;;;;;6.79;100.00;98944.17;1664828;86;25406;-43
2024/02/06 06:45:28;;;;;;;22.73;10.68;;;;;;;6.78;100.00;98939.36;1664694;86;28208;-42
2024/02/06 06:47:56;;;;;;;18.40;10.25;;;;;;;6.78;100.00;98934.55;1667637;85;25677;-43
2024/02/06 06:50:23;;;;;;;21.75;11.05;;;;;;;6.79;100.00;98935.55;1664575;86;25568;-44
2024/02/06 06:52:50;;;;;;;22.73;11.70;;;;;;;6.78;100.00;98940.70;1664593;86;25636;-44
2024/02/06 06:55:19;;;;;;;20.57;10.98;;;;;;;6.78;100.00;98933.98;1664713;86;25651;-44
2024/02/06 06:57:46;;;;;;;21.52;10.98;;;;;;;6.79;100.00;98940.14;1664734;86;27712;-43
2024/02/06 07:00:18;;;;;;;18.95;10.70;;;;;;;6.78;100.00;98928.61;1637265;86;25686;-44
2024/02/06 07:02:47;;;;;;;20.68;11.50;;;;;;;6.76;100.00;98942.11;1664827;86;25588;-45
2024/02/06 07:05:17;;;;;;;18.62;11.57;;;;;;;6.78;100.00;98938.58;1665328;85;25934;-44
2024/02/06 07:07:43;;;;;;;20.70;11.90;;;;;;;6.77;100.00;98954.45;1664630;86;25490;-43
2024/02/06 07:10:10;;;;;;;23.83;11.53;;;;;;;6.75;100.00;98952.08;1666533;85;27752;-44
2024/02/06 07:12:37;;;;;;;19.12;11.35;;;;;;;6.77;100.00;98950.42;1664446;86;25652;-44
2024/02/06 07:15:08;;;;;;;21.05;11.55;;;;;;;6.77;100.00;98939.67;1664554;86;25782;-42
2024/02/06 07:17:38;;;;;;;33.55;21.60;;;;;;;6.75;100.00;98949.39;1664556;86;25669;-44
2024/02/06 07:20:08;;;;;;;;;;;;;;;6.78;100.00;98947.42;1668263;85;25557;-46
2024/02/06 07:22:38;;;;;;;22.10;11.75;;;;;;;6.82;100.00;98955.64;1664639;86;27396;-44
2024/02/06 07:25:09;;;;;;;;;;;;;;;6.83;100.00;98926.32;1667077;85;25923;-47
2024/02/06 07:27:39;;;;;;;23.42;10.13;;;;;;;6.85;100.00;98946.38;1664667;86;25503;-44
2024/02/06 07:30:10;;;;;;;19.25;9.73;;;;;;;6.83;100.00;98933.82;1665444;85;26327;-44
2024/02/06 07:32:37;;;;;;;16.07;10.28;;;;;;;6.85;100.00;98943.70;1664447;86;25714;-43
2024/02/06 07:35:08;;;;;;;20.95;10.90;;;;;;;6.83;100.00;98939.76;1664523;86;28352;-43
2024/02/06 07:37:37;;;;;;;16.80;10.05;;;;;;;6.85;100.00;98940.23;1664607;86;25565;-42
2024/02/06 07:40:10;;;;;;;15.38;9.43;;;;;;;6.84;100.00;98957.45;1665448;85;25629;-43
2024/02/06 07:42:37;;;;;;;19.37;10.32;;;;;;;6.83;100.00;98938.41;1664622;86;25680;-42
2024/02/06 07:45:09;;;;;;;19.85;9.60;;;;;;;6.83;100.00;98939.76;1664691;86;25196;-43
2024/02/06 07:47:39;;;;;;;17.48;10.38;;;;;;;6.83;100.00;98935.73;1664615;86;27399;-43
2024/02/06 07:50:10;;;;;;;17.10;9.98;;;;;;;6.83;100.00;98946.48;1665382;85;25601;-42
2024/02/06 07:52:36;;;;;;;19.55;10.05;;;;;;;6.82;100.00;98950.26;1664681;86;25569;-44
2024/02/06 07:55:08;;;;;;;18.00;10.53;;;;;;;6.80;100.00;98941.73;1664596;86;25684;-42
2024/02/06 07:57:37;;;;;;;18.10;10.78;;;;;;;6.81;100.00;98941.42;1664643;86;25259;-44
2024/02/06 08:00:11;;;;;;;16.95;10.20;;;;;;;6.81;100.00;98947.33;1664606;86;27336;-43
2024/02/06 08:02:38;;;;;;;17.55;9.63;;;;;;;6.81;100.00;98965.61;1665714;85;25552;-44
2024/02/06 08:05:10;;;;;;;19.32;10.60;;;;;;;6.82;100.00;98938.16;1664308;86;26028;-45
2024/02/06 08:07:40;;;;;;;19.65;11.85;;;;;;;6.82;100.00;98954.29;1664401;86;25727;-43
2024/02/06 08:10:10;;;;;;;21.17;11.75;;;;;;;6.82;100.00;98944.32;1664764;86;25655;-43
2024/02/06 08:12:40;;;;;;;23.62;10.38;;;;;;;6.83;100.00;98947.26;1664489;86;27572;-44
2024/02/06 08:15:10;;;;;;;16.95;9.60;;;;;;;6.89;100.00;98943.84;1664486;86;25683;-45
2024/02/06 08:17:42;;;;;;;17.40;9.70;;;;;;;6.89;100.00;98936.56;1667623;85;25225;-43
2024/02/06 08:20:16;;;;;;;16.32;9.30;;;;;;;6.89;100.00;98946.54;1664825;86;25608;-43
2024/02/06 08:22:47;;;;;;;19.80;9.65;;;;;;;6.87;100.00;98949.54;1664401;86;25652;-44
2024/02/06 08:25:18;;;;;;;18.52;9.48;;;;;;;6.88;100.00;98939.03;1664608;86;27860;-44
2024/02/06 08:27:49;;;;;;;17.07;9.18;;;;;;;6.89;100.00;98943.28;1664445;86;25624;-46
2024/02/06 08:30:22;;;;;;;15.13;7.70;;;;;;;6.88;100.00;98946.31;1664125;86;25556;-43
2024/02/06 08:32:48;;;;;;;14.83;8.43;;;;;;;6.89;100.00;98970.17;1664510;86;25965;-44
2024/02/06 08:35:15;;;;;;;12.10;7.78;;;;;;;6.89;100.00;98952.70;1665578;85;25611;-46
2024/02/06 08:37:42;;;;;;;20.30;8.05;;;;;;;6.89;100.00;98949.22;1664650;86;27340;-43
2024/02/06 08:40:16;;;;;;;16.52;8.08;;;;;;;6.91;100.00;98955.07;1664445;86;25579;-45
2024/02/06 08:42:43;;;;;;;14.38;7.70;;;;;;;6.93;100.00;98956.91;1664587;86;25652;-44
2024/02/06 08:45:10;;;;;;;13.13;7.97;;;;;;;6.94;100.00;98951.75;1663978;86;26216;-45
2024/02/06 08:47:38;;;;;;;19.83;7.60;;;;;;;6.96;100.00;98950.09;1664180;86;25695;-46
2024/02/06 08:50:12;;;;;;;12.13;7.65;;;;;;;6.98;100.00;98946.53;1664559;86;27017;-47
2024/02/06 08:52:38;;;;;;;15.98;8.10;;;;;;;6.99;100.00;98944.09;1664218;86;25655;-44
2024/02/06 08:55:14;;;;;;;17.17;8.08;;;;;;;6.97;100.00;98949.78;1664628;86;25602;-45
2024/02/06 08:57:43;;;;;;;14.98;7.53;;;;;;;6.98;100.00;98952.72;1664514;86;25692;-47
2024/02/06 09:00:21;;;;;;;39.92;24.57;;;;;;;6.98;100.00;98937.12;1661153;86;25491;-46
2024/02/06 09:02:47;;;;;;;20.62;15.48;;;;;;;7.02;100.00;98952.31;1664635;86;27500;-48
2024/02/06 09:05:19;;;;;;;12.37;6.78;;;;;;;7.05;100.00;98946.86;1664644;86;26115;-46
2024/02/06 09:07:48;;;;;;;12.93;7.58;;;;;;;7.06;100.00;98961.30;1664509;86;25724;-46
2024/02/06 09:10:16;;;;;;;13.10;7.42;;;;;;;7.13;100.00;98956.80;1664499;86;25602;-44
2024/02/06 09:12:47;;;;;;;11.95;7.05;;;;;;;7.14;100.00;98954.91;1664502;85;25647;-45
2024/02/06 09:15:19;;;;;;;17.37;7.53;;;;;;;7.13;100.00;98951.98;1664327;86;27366;-46
2024/02/06 09:17:48;;;;;;;16.67;7.80;;;;;;;7.09;100.00;98979.50;1664353;86;25879;-45
2024/02/06 09:20:22;;;;;;;10.05;7.00;;;;;;;7.11;100.00;98951.73;1662866;86;25537;-44
2024/02/06 09:22:51;;;;;;;12.95;7.70;;;;;;;7.10;100.00;98956.11;1666266;85;25810;-44
2024/02/06 09:25:21;;;;;;;13.20;6.90;;;;;;;7.11;100.00;98955.77;1664480;86;25622;-45
2024/02/06 09:27:48;;;;;;;84.22;77.87;;;;;;;7.11;100.00;98949.61;1664571;86;28346;-45
2024/02/06 09:30:21;;;;;;;82.53;76.40;;;;;;;7.11;100.00;98950.39;1664467;86;26048;-44
2024/02/06 09:32:51;;;;;;;13.28;7.65;;;;;;;7.09;100.00;98945.89;1667603;85;25666;-44
2024/02/06 09:35:21;;;;;;;14.10;6.90;;;;;;;7.15;100.00;98948.41;1664351;86;25963;-44
2024/02/06 09:37:49;;;;;;;11.48;7.50;;;;;;;7.17;100.00;98949.69;1660497;86;25674;-42
2024/02/06 09:40:16;;;;;;;14.28;6.72;;;;;;;7.20;100.00;98952.28;1664522;86;27672;-45
2024/02/06 09:42:53;;;;;;;13.40;7.12;;;;;;;7.20;100.00;98938.83;1660998;86;25649;-43
2024/02/06 09:45:26;;;;;;;13.62;7.30;;;;;;;7.21;100.00;98951.19;1664496;86;25519;-46
2024/02/06 09:47:52;;;;;;;9.70;6.97;;;;;;;7.21;100.00;98944.45;1664375;86;25678;-42
2024/02/06 09:50:18;;;;;;;15.70;7.47;;;;;;;7.21;100.00;98938.52;1664441;86;25507;-43
2024/02/06 09:52:50;;;;;;;13.10;7.03;;;;;;;7.21;100.00;98957.34;1664479;86;27638;-46
2024/02/06 09:55:23;;;;;;;12.28;6.20;;;;;;;7.22;100.00;98947.36;1664474;86;25643;-43
2024/02/06 09:57:54;;;;;;;10.38;6.67;;;;;;;7.18;100.00;98951.25;1670233;85;25583;-43
2024/02/06 10:00:24;;;;;;;12.73;6.70;;;;;;;7.20;100.00;98963.03;1665874;85;25631;-44
2024/02/06 10:02:57;;;;;;;34.08;19.02;;;;;;;7.21;100.00;98949.84;1664447;86;25594;-46
2024/02/06 10:05:31;;;;;;;32.17;20.40;;;;;;;7.25;100.00;98950.23;1664329;86;27362;-45
2024/02/06 10:08:01;;;;;;;10.78;6.92;;;;;;;7.31;100.00;98952.75;1664406;86;25620;-43
2024/02/06 10:10:33;;;;;;;12.40;6.50;;;;;;;7.39;100.00;98953.27;1666499;85;25501;-45
2024/02/06 10:13:05;;;;;;;8.05;5.95;;;;;;;7.47;100.00;98940.35;1664642;86;25920;-44
2024/02/06 10:15:35;;;;;;;10.95;6.67;;;;;;;7.56;100.00;98937.63;1664754;86;25612;-46
2024/02/06 10:18:09;;;;;;;12.73;6.33;;;;;;;7.63;100.00;98940.08;1664808;85;27362;-43
2024/02/06 10:20:47;;;;;;;9.08;5.80;;;;;;;7.67;100.00;98938.88;1664583;86;25547;-43
2024/02/06 10:23:19;;;;;;;11.20;5.33;;;;;;;7.68;100.00;98940.47;1664409;84;25659;-43
2024/02/06 10:25:50;;;;;;;12.15;6.10;;;;;;;7.67;100.00;98943.69;1665534;85;25519;-42
2024/02/06 10:28:27;;;;;;;14.18;5.30;;;;;;;7.69;100.00;98929.13;1664578;86;25534;-44
2024/02/06 10:30:56;;;;;;;11.80;5.40;;;;;;;7.65;100.00;98912.28;1664493;86;28599;-42
2024/02/06 10:33:23;;;;;;;8.30;4.80;;;;;;;7.66;100.00;98919.79;1664533;86;25564;-44
2024/02/06 10:35:49;;;;;;;8.80;5.83;;;;;;;7.67;100.00;98916.00;1664641;86;25578;-43
2024/02/06 10:38:22;;;;;;;12.03;5.28;;;;;;;7.66;100.00;98921.95;1662587;86;26218;-44
2024/02/06 10:40:51;;;;;;;10.35;5.58;;;;;;;7.68;100.00;98920.28;1666340;85;25656;-44
2024/02/06 10:43:20;;;;;;;9.68;5.58;;;;;;;7.69;100.00;98903.00;1664736;86;28431;-45
2024/02/06 10:46:04;;;;;;;10.00;5.95;;;;;;;7.70;100.00;98913.23;1664376;86;25985;-42
2024/02/06 10:48:32;;;;;;;12.03;5.42;;;;;;;7.69;100.00;98912.42;1669543;85;25560;-45
2024/02/06 10:51:08;;;;;;;8.25;4.65;;;;;;;7.68;99.46;98869.14;1664514;86;25715;-45
2024/02/06 10:53:42;;;;;;;11.08;6.22;;;;;;;7.71;99.31;98929.03;1664726;86;25647;-44
2024/02/06 10:56:14;;;;;;;9.70;5.53;;;;;;;7.71;99.68;98910.19;1664579;86;27461;-47
2024/02/06 10:58:46;;;;;;;13.13;7.08;;;;;;;7.74;98.74;98915.50;1664627;86;25842;-45
2024/02/06 11:01:16;;;;;;;9.15;6.08;;;;;;;7.79;99.97;98909.37;1667885;85;25758;-46
2024/02/06 11:03:48;;;;;;;9.03;5.12;;;;;;;7.81;99.30;98928.67;1665754;85;27210;-47
2024/02/06 11:06:27;;;;;;;9.38;5.15;;;;;;;7.86;99.15;98914.25;1662435;86;25650;-49
2024/02/06 11:09:01;;;;;;;9.25;5.40;;;;;;;7.91;98.37;98922.14;1665348;85;27781;-45
2024/02/06 11:11:33;;;;;;;8.53;5.75;;;;;;;7.98;97.43;98917.03;1664581;85;25607;-44
2024/02/06 11:14:03;;;;;;;16.95;5.72;;;;;;;7.94;96.58;98922.06;1664514;86;25430;-45
2024/02/06 11:16:34;;;;;;;10.40;5.53;;;;;;;7.91;97.24;98926.18;1639618;86;25768;-44
2024/02/06 11:19:30;;;;;;;7.92;5.35;;;;;;;7.86;97.30;98900.79;1664790;86;25596;-44
2024/02/06 11:22:02;;;;;;;9.63;5.03;;;;;;;7.86;97.05;98912.91;1662977;85;27325;-44
2024/02/06 11:24:34;;;;;;;9.63;5.55;;;;;;;7.84;97.21;98915.14;1659011;86;25658;-46
2024/02/06 11:27:05;;;;;;;8.93;5.15;;;;;;;7.81;96.97;98913.87;1665296;85;25635;-45
2024/02/06 11:29:38;;;;;;;6.03;5.20;;;;;;;7.80;96.88;98917.69;1664501;86;25819;-45
2024/02/06 11:32:10;;;;;;;9.63;5.47;;;;;;;7.79;96.19;98905.33;1664562;85;25815;-46
2024/02/06 11:34:54;;;;;;;9.45;5.60;;;;;;;7.79;96.59;98925.52;1666602;85;26019;-46
2024/02/06 11:37:30;;;;;;;8.80;5.08;;;;;;;7.79;96.79;98905.89;1664621;86;25753;-47